sensor_id;sensor_type;location;lat;lon;timestamp;pressure;altitude;pressure_sealevel;temperature;humidity
46412;BME280;32113;42.012;24.870;2022-08-14T00:00:20;98277.94;;;26.40;44.80
46412;BME280;32113;42.012;24.870;2022-08-14T00:02:46;98272.03;;;26.48;44.55
46412;BME280;32113;42.012;24.870;2022-08-14T00:05:16;98274.78;;;26.46;44.83
46412;BME280;32113;42.012;24.870;2022-08-14T00:07:42;98268.81;;;26.44;44.29
46412;BME280;32113;42.012;24.870;2022-08-14T00:10:11;98272.25;;;26.35;44.48
46412;BME280;32113;42.012;24.870;2022-08-14T00:12:40;98270.75;;;26.32;44.75
46412;BME280;32113;42.012;24.870;2022-08-14T00:15:31;98270.56;;;26.24;44.75
46412;BME280;32113;42.012;24.870;2022-08-14T00:17:58;98263.75;;;26.11;45.21
46412;BME280;32113;42.012;24.870;2022-08-14T00:20:29;98259.75;;;26.07;44.97
46412;BME280;32113;42.012;24.870;2022-08-14T00:22:55;98256.44;;;26.05;44.72
46412;BME280;32113;42.012;24.870;2022-08-14T00:25:20;98256.56;;;26.04;44.41
46412;BME280;32113;42.012;24.870;2022-08-14T00:27:46;98256.38;;;25.95;44.40
46412;BME280;32113;42.012;24.870;2022-08-14T00:30:12;98255.41;;;25.87;44.60
46412;BME280;32113;42.012;24.870;2022-08-14T00:32:39;98246.25;;;25.81;44.63
46412;BME280;32113;42.012;24.870;2022-08-14T00:35:06;98240.28;;;25.69;44.89
46412;BME280;32113;42.012;24.870;2022-08-14T00:37:33;98248.97;;;25.69;44.58
46412;BME280;32113;42.012;24.870;2022-08-14T00:39:59;98246.44;;;25.58;44.54
46412;BME280;32113;42.012;24.870;2022-08-14T00:42:25;98239.44;;;25.47;45.43
46412;BME280;32113;42.012;24.870;2022-08-14T00:44:52;98232.31;;;25.28;45.83
46412;BME280;32113;42.012;24.870;2022-08-14T00:47:19;98246.59;;;24.92;47.24
46412;BME280;32113;42.012;24.870;2022-08-14T00:49:45;98242.03;;;24.73;47.59
46412;BME280;32113;42.012;24.870;2022-08-14T00:52:12;98241.53;;;24.79;47.30
46412;BME280;32113;42.012;24.870;2022-08-14T00:54:38;98237.31;;;24.88;47.38
46412;BME280;32113;42.012;24.870;2022-08-14T00:57:04;98241.53;;;24.79;47.37
46412;BME280;32113;42.012;24.870;2022-08-14T00:59:30;98228.28;;;24.60;48.02
46412;BME280;32113;42.012;24.870;2022-08-14T01:01:58;98223.16;;;24.58;47.97
46412;BME280;32113;42.012;24.870;2022-08-14T01:04:25;98225.94;;;24.45;48.10
46412;BME280;32113;42.012;24.870;2022-08-14T01:06:50;98218.25;;;24.53;48.06
46412;BME280;32113;42.012;24.870;2022-08-14T01:09:20;98226.84;;;24.56;47.93
46412;BME280;32113;42.012;24.870;2022-08-14T01:11:51;98223.44;;;24.44;48.19
46412;BME280;32113;42.012;24.870;2022-08-14T01:14:17;98220.88;;;24.53;47.93
46412;BME280;32113;42.012;24.870;2022-08-14T01:16:44;98224.47;;;24.52;48.07
46412;BME280;32113;42.012;24.870;2022-08-14T01:19:10;98218.72;;;24.59;48.04
46412;BME280;32113;42.012;24.870;2022-08-14T01:21:53;98223.53;;;24.75;47.58
46412;BME280;32113;42.012;24.870;2022-08-14T01:24:22;98222.44;;;24.77;47.61
46412;BME280;32113;42.012;24.870;2022-08-14T01:26:49;98227.78;;;24.87;47.63
46412;BME280;32113;42.012;24.870;2022-08-14T01:29:16;98230.09;;;25.02;47.26
46412;BME280;32113;42.012;24.870;2022-08-14T01:31:43;98226.06;;;24.98;47.66
46412;BME280;32113;42.012;24.870;2022-08-14T01:34:09;98234.47;;;24.80;47.80
46412;BME280;32113;42.012;24.870;2022-08-14T01:36:35;98233.91;;;24.76;48.08
46412;BME280;32113;42.012;24.870;2022-08-14T01:39:08;98224.75;;;24.71;48.36
46412;BME280;32113;42.012;24.870;2022-08-14T01:41:35;98224.03;;;24.69;48.35
46412;BME280;32113;42.012;24.870;2022-08-14T01:44:04;98219.44;;;24.61;48.56
46412;BME280;32113;42.012;24.870;2022-08-14T01:46:35;98214.56;;;24.56;48.60
46412;BME280;32113;42.012;24.870;2022-08-14T01:49:05;98218.41;;;24.52;48.92
46412;BME280;32113;42.012;24.870;2022-08-14T01:51:31;98216.28;;;24.46;48.80
46412;BME280;32113;42.012;24.870;2022-08-14T01:54:04;98223.44;;;24.44;48.96
46412;BME280;32113;42.012;24.870;2022-08-14T01:56:31;98219.06;;;24.33;49.00
46412;BME280;32113;42.012;24.870;2022-08-14T01:59:02;98217.88;;;24.25;49.33
46412;BME280;32113;42.012;24.870;2022-08-14T02:01:28;98219.06;;;24.33;49.50
46412;BME280;32113;42.012;24.870;2022-08-14T02:03:53;98219.84;;;24.45;48.86
46412;BME280;32113;42.012;24.870;2022-08-14T02:06:19;98211.25;;;24.54;48.70
46412;BME280;32113;42.012;24.870;2022-08-14T02:08:46;98206.84;;;24.54;48.39
46412;BME280;32113;42.012;24.870;2022-08-14T02:11:11;98204.28;;;24.64;48.44
46412;BME280;32113;42.012;24.870;2022-08-14T02:16:22;98210.00;;;24.91;47.78
46412;BME280;32113;42.012;24.870;2022-08-14T02:18:51;98209.22;;;25.00;48.23
46412;BME280;32113;42.012;24.870;2022-08-14T02:21:17;98204.06;;;25.10;48.06
46412;BME280;32113;42.012;24.870;2022-08-14T02:23:44;98199.81;;;25.19;48.51
46412;BME280;32113;42.012;24.870;2022-08-14T02:26:19;98198.75;;;25.31;48.40
46412;BME280;32113;42.012;24.870;2022-08-14T02:28:46;98194.63;;;25.39;48.13
46412;BME280;32113;42.012;24.870;2022-08-14T02:31:13;98205.13;;;25.39;48.67
46412;BME280;32113;42.012;24.870;2022-08-14T02:33:39;98205.00;;;25.40;48.89
46412;BME280;32113;42.012;24.870;2022-08-14T02:36:06;98196.88;;;25.43;48.69
46412;BME280;32113;42.012;24.870;2022-08-14T02:38:32;98185.81;;;25.40;48.77
46412;BME280;32113;42.012;24.870;2022-08-14T02:40:58;98199.94;;;25.49;48.91
46412;BME280;32113;42.012;24.870;2022-08-14T02:43:24;98196.22;;;25.51;48.34
46412;BME280;32113;42.012;24.870;2022-08-14T02:45:56;98202.91;;;25.55;48.64
46412;BME280;32113;42.012;24.870;2022-08-14T02:48:22;98204.44;;;25.58;48.19
46412;BME280;32113;42.012;24.870;2022-08-14T02:50:47;98203.75;;;25.56;48.26
46412;BME280;32113;42.012;24.870;2022-08-14T02:53:13;98191.94;;;25.50;48.48
46412;BME280;32113;42.012;24.870;2022-08-14T02:55:40;98197.13;;;25.40;48.44
46412;BME280;32113;42.012;24.870;2022-08-14T02:58:08;98187.72;;;25.28;48.58
46412;BME280;32113;42.012;24.870;2022-08-14T03:00:34;98184.91;;;25.19;49.07
46412;BME280;32113;42.012;24.870;2022-08-14T03:03:01;98183.63;;;25.14;49.05
46412;BME280;32113;42.012;24.870;2022-08-14T03:05:27;98190.94;;;25.10;49.37
46412;BME280;32113;42.012;24.870;2022-08-14T03:08:06;98184.72;;;25.11;49.02
46412;BME280;32113;42.012;24.870;2022-08-14T03:10:32;98187.09;;;24.93;49.36
46412;BME280;32113;42.012;24.870;2022-08-14T03:12:59;98190.09;;;24.88;49.38
46412;BME280;32113;42.012;24.870;2022-08-14T03:15:26;98186.44;;;24.79;49.42
46412;BME280;32113;42.012;24.870;2022-08-14T03:17:51;98183.94;;;24.78;49.62
46412;BME280;32113;42.012;24.870;2022-08-14T03:20:17;98181.31;;;24.78;48.82
46412;BME280;32113;42.012;24.870;2022-08-14T03:22:43;98179.53;;;24.78;48.91
46412;BME280;32113;42.012;24.870;2022-08-14T03:25:08;98165.97;;;24.73;48.41
46412;BME280;32113;42.012;24.870;2022-08-14T03:27:36;98168.09;;;24.58;48.56
46412;BME280;32113;42.012;24.870;2022-08-14T03:30:03;98165.25;;;24.50;49.00
46412;BME280;32113;42.012;24.870;2022-08-14T03:32:28;98168.97;;;24.47;49.04
46412;BME280;32113;42.012;24.870;2022-08-14T03:34:55;98160.31;;;24.35;48.98
46412;BME280;32113;42.012;24.870;2022-08-14T03:37:20;98169.09;;;24.46;49.11
46412;BME280;32113;42.012;24.870;2022-08-14T03:39:46;98166.84;;;24.41;48.82
46412;BME280;32113;42.012;24.870;2022-08-14T03:42:11;98169.34;;;24.43;48.79
46412;BME280;32113;42.012;24.870;2022-08-14T03:44:37;98167.88;;;24.50;49.38
46412;BME280;32113;42.012;24.870;2022-08-14T03:47:04;98160.72;;;24.52;48.29
46412;BME280;32113;42.012;24.870;2022-08-14T03:49:30;98168.78;;;24.60;48.25
46412;BME280;32113;42.012;24.870;2022-08-14T03:51:59;98168.84;;;24.70;47.98
46412;BME280;32113;42.012;24.870;2022-08-14T03:54:29;98174.22;;;24.69;48.47
46412;BME280;32113;42.012;24.870;2022-08-14T03:56:54;98182.66;;;24.72;49.13
46412;BME280;32113;42.012;24.870;2022-08-14T03:59:24;98186.66;;;24.88;49.61
46412;BME280;32113;42.012;24.870;2022-08-14T04:01:50;98178.97;;;24.96;49.83
46412;BME280;32113;42.012;24.870;2022-08-14T04:04:17;98182.88;;;25.02;49.79
46412;BME280;32113;42.012;24.870;2022-08-14T04:06:42;98194.22;;;25.02;49.79
46412;BME280;32113;42.012;24.870;2022-08-14T04:09:08;98195.88;;;25.03;50.29
46412;BME280;32113;42.012;24.870;2022-08-14T04:11:35;98203.63;;;25.05;50.16
46412;BME280;32113;42.012;24.870;2022-08-14T04:14:01;98203.09;;;25.11;49.95
46412;BME280;32113;42.012;24.870;2022-08-14T04:16:26;98204.38;;;25.17;50.19
46412;BME280;32113;42.012;24.870;2022-08-14T04:18:55;98211.72;;;25.23;50.22
46412;BME280;32113;42.012;24.870;2022-08-14T04:21:22;98213.69;;;25.31;50.01
46412;BME280;32113;42.012;24.870;2022-08-14T04:23:49;98222.78;;;25.27;50.40
46412;BME280;32113;42.012;24.870;2022-08-14T04:26:15;98229.69;;;25.28;50.71
46412;BME280;32113;42.012;24.870;2022-08-14T04:28:44;98227.56;;;25.22;50.94
46412;BME280;32113;42.012;24.870;2022-08-14T04:31:11;98229.06;;;25.14;51.50
46412;BME280;32113;42.012;24.870;2022-08-14T04:33:37;98223.50;;;25.08;52.09
46412;BME280;32113;42.012;24.870;2022-08-14T04:36:02;98224.94;;;25.22;52.22
46412;BME280;32113;42.012;24.870;2022-08-14T04:38:28;98220.53;;;25.22;52.21
46412;BME280;32113;42.012;24.870;2022-08-14T04:41:13;98216.72;;;25.26;52.28
46412;BME280;32113;42.012;24.870;2022-08-14T04:43:57;98205.78;;;25.21;52.71
46412;BME280;32113;42.012;24.870;2022-08-14T04:46:23;98208.09;;;25.14;52.98
46412;BME280;32113;42.012;24.870;2022-08-14T04:48:49;98199.94;;;25.17;53.02
46412;BME280;32113;42.012;24.870;2022-08-14T04:51:17;98203.59;;;25.26;52.74
46412;BME280;32113;42.012;24.870;2022-08-14T04:53:46;98202.78;;;25.36;52.21
46412;BME280;32113;42.012;24.870;2022-08-14T04:56:14;98199.63;;;25.42;52.12
46412;BME280;32113;42.012;24.870;2022-08-14T04:58:39;98196.75;;;25.45;52.35
46412;BME280;32113;42.012;24.870;2022-08-14T05:01:08;98197.91;;;25.31;52.52
46412;BME280;32113;42.012;24.870;2022-08-14T05:03:36;98195.41;;;25.19;53.06
46412;BME280;32113;42.012;24.870;2022-08-14T05:06:04;98193.25;;;25.35;52.98
46412;BME280;32113;42.012;24.870;2022-08-14T05:08:31;98192.47;;;25.44;53.11
46412;BME280;32113;42.012;24.870;2022-08-14T05:10:58;98186.44;;;25.53;52.71
46412;BME280;32113;42.012;24.870;2022-08-14T05:13:26;98182.44;;;25.59;52.69
46412;BME280;32113;42.012;24.870;2022-08-14T05:15:53;98183.47;;;25.68;52.05
46412;BME280;32113;42.012;24.870;2022-08-14T05:18:31;98184.44;;;25.77;52.17
46412;BME280;32113;42.012;24.870;2022-08-14T05:20:59;98191.25;;;25.89;51.79
46412;BME280;32113;42.012;24.870;2022-08-14T05:23:28;98192.22;;;25.98;51.66
46412;BME280;32113;42.012;24.870;2022-08-14T05:25:56;98192.50;;;26.05;51.07
46412;BME280;32113;42.012;24.870;2022-08-14T05:28:29;98192.09;;;26.09;50.31
46412;BME280;32113;42.012;24.870;2022-08-14T05:30:58;98196.94;;;26.14;50.38
46412;BME280;32113;42.012;24.870;2022-08-14T05:33:25;98189.75;;;26.16;50.61
46412;BME280;32113;42.012;24.870;2022-08-14T05:35:54;98193.75;;;26.20;50.00
46412;BME280;32113;42.012;24.870;2022-08-14T05:38:29;98190.19;;;26.21;49.96
46412;BME280;32113;42.012;24.870;2022-08-14T05:40:59;98191.59;;;26.26;50.07
46412;BME280;32113;42.012;24.870;2022-08-14T05:43:25;98189.09;;;26.24;50.15
46412;BME280;32113;42.012;24.870;2022-08-14T05:45:50;98189.22;;;26.22;50.55
46412;BME280;32113;42.012;24.870;2022-08-14T05:48:16;98193.53;;;26.33;50.09
46412;BME280;32113;42.012;24.870;2022-08-14T05:50:41;98189.22;;;26.32;49.86
46412;BME280;32113;42.012;24.870;2022-08-14T05:53:07;98184.94;;;26.31;50.50
46412;BME280;32113;42.012;24.870;2022-08-14T05:55:33;98188.56;;;26.30;50.17
46412;BME280;32113;42.012;24.870;2022-08-14T05:58:00;98186.72;;;26.21;50.35
46412;BME280;32113;42.012;24.870;2022-08-14T06:00:35;98186.59;;;26.22;50.26
46412;BME280;32113;42.012;24.870;2022-08-14T06:03:04;98184.94;;;26.21;50.85
46412;BME280;32113;42.012;24.870;2022-08-14T06:05:30;98192.25;;;26.18;50.79
46412;BME280;32113;42.012;24.870;2022-08-14T06:07:57;98195.06;;;26.26;51.06
46412;BME280;32113;42.012;24.870;2022-08-14T06:10:23;98189.09;;;26.34;50.33
46412;BME280;32113;42.012;24.870;2022-08-14T06:12:48;98190.06;;;26.33;49.92
46412;BME280;32113;42.012;24.870;2022-08-14T06:15:14;98187.31;;;26.34;49.72
46412;BME280;32113;42.012;24.870;2022-08-14T06:17:48;98192.72;;;26.33;49.91
46412;BME280;32113;42.012;24.870;2022-08-14T06:20:15;98202.81;;;26.28;50.40
46412;BME280;32113;42.012;24.870;2022-08-14T06:22:41;98190.47;;;26.28;50.74
46412;BME280;32113;42.012;24.870;2022-08-14T06:25:12;98189.78;;;26.26;50.28
46412;BME280;32113;42.012;24.870;2022-08-14T06:27:45;98188.25;;;26.23;49.98
46412;BME280;32113;42.012;24.870;2022-08-14T06:30:15;98198.66;;;26.25;49.98
46412;BME280;32113;42.012;24.870;2022-08-14T06:32:41;98192.28;;;26.28;50.11
46412;BME280;32113;42.012;24.870;2022-08-14T06:35:08;98203.50;;;26.30;50.13
46412;BME280;32113;42.012;24.870;2022-08-14T06:37:46;98198.88;;;26.22;50.17
46412;BME280;32113;42.012;24.870;2022-08-14T06:40:15;98201.28;;;26.25;50.15
46412;BME280;32113;42.012;24.870;2022-08-14T06:42:41;98196.56;;;26.29;49.35
46412;BME280;32113;42.012;24.870;2022-08-14T06:45:07;98197.38;;;26.19;49.40
46412;BME280;32113;42.012;24.870;2022-08-14T06:47:37;98206.34;;;26.17;49.34
46412;BME280;32113;42.012;24.870;2022-08-14T06:50:05;98204.00;;;26.14;49.34
46412;BME280;32113;42.012;24.870;2022-08-14T06:52:31;98210.34;;;26.11;49.85
46412;BME280;32113;42.012;24.870;2022-08-14T06:54:56;98205.81;;;26.13;49.24
46412;BME280;32113;42.012;24.870;2022-08-14T06:57:23;98206.63;;;26.14;49.66
46412;BME280;32113;42.012;24.870;2022-08-14T06:59:48;98207.59;;;26.13;49.50
46412;BME280;32113;42.012;24.870;2022-08-14T07:02:13;98203.31;;;26.11;49.25
46412;BME280;32113;42.012;24.870;2022-08-14T07:04:58;98205.97;;;26.21;49.67
46412;BME280;32113;42.012;24.870;2022-08-14T07:07:42;98204.59;;;26.27;49.59
46412;BME280;32113;42.012;24.870;2022-08-14T07:10:09;98201.84;;;26.39;49.59
46412;BME280;32113;42.012;24.870;2022-08-14T07:12:34;98200.72;;;26.51;49.80
46412;BME280;32113;42.012;24.870;2022-08-14T07:15:00;98201.69;;;26.60;49.82
46412;BME280;32113;42.012;24.870;2022-08-14T07:17:26;98204.16;;;26.71;49.76
46412;BME280;32113;42.012;24.870;2022-08-14T07:19:51;98205.16;;;26.70;49.95
46412;BME280;32113;42.012;24.870;2022-08-14T07:22:17;98203.50;;;26.69;50.26
46412;BME280;32113;42.012;24.870;2022-08-14T07:24:43;98211.78;;;26.74;50.34
46412;BME280;32113;42.012;24.870;2022-08-14T07:27:08;98213.44;;;26.75;50.60
46412;BME280;32113;42.012;24.870;2022-08-14T07:29:34;98207.66;;;26.72;50.25
46412;BME280;32113;42.012;24.870;2022-08-14T07:32:00;98209.69;;;26.68;50.25
46412;BME280;32113;42.012;24.870;2022-08-14T07:34:25;98210.13;;;26.63;50.28
46412;BME280;32113;42.012;24.870;2022-08-14T07:36:50;98212.63;;;26.65;50.76
46412;BME280;32113;42.012;24.870;2022-08-14T07:39:16;98207.78;;;26.70;50.80
46412;BME280;32113;42.012;24.870;2022-08-14T07:41:42;98207.50;;;26.73;50.84
46412;BME280;32113;42.012;24.870;2022-08-14T07:44:09;98202.34;;;26.82;50.02
46412;BME280;32113;42.012;24.870;2022-08-14T07:46:35;98207.06;;;26.88;50.39
46412;BME280;32113;42.012;24.870;2022-08-14T07:49:02;98210.81;;;26.95;49.83
46412;BME280;32113;42.012;24.870;2022-08-14T07:51:27;98210.41;;;27.00;49.70
46412;BME280;32113;42.012;24.870;2022-08-14T07:53:53;98205.66;;;27.04;49.33
46412;BME280;32113;42.012;24.870;2022-08-14T07:56:19;98202.78;;;26.97;49.16
46412;BME280;32113;42.012;24.870;2022-08-14T07:58:44;98204.56;;;26.96;49.08
46412;BME280;32113;42.012;24.870;2022-08-14T08:01:11;98199.47;;;26.95;49.39
46412;BME280;32113;42.012;24.870;2022-08-14T08:03:39;98201.00;;;26.97;49.71
46412;BME280;32113;42.012;24.870;2022-08-14T08:06:07;98196.78;;;27.05;48.98
46412;BME280;32113;42.012;24.870;2022-08-14T08:08:32;98187.81;;;26.97;49.53
46412;BME280;32113;42.012;24.870;2022-08-14T08:11:00;98183.63;;;27.05;49.44
46412;BME280;32113;42.012;24.870;2022-08-14T08:13:26;98190.69;;;27.14;48.90
46412;BME280;32113;42.012;24.870;2022-08-14T08:15:55;98188.69;;;27.26;48.87
46412;BME280;32113;42.012;24.870;2022-08-14T08:18:21;98181.56;;;27.36;48.75
46412;BME280;32113;42.012;24.870;2022-08-14T08:20:49;98182.44;;;27.27;48.70
46412;BME280;32113;42.012;24.870;2022-08-14T08:23:16;98180.63;;;27.37;48.90
46412;BME280;32113;42.012;24.870;2022-08-14T08:25:46;98189.53;;;27.26;48.72
46412;BME280;32113;42.012;24.870;2022-08-14T08:28:18;98186.19;;;27.24;49.02
46412;BME280;32113;42.012;24.870;2022-08-14T08:30:55;98186.78;;;27.18;49.79
46412;BME280;32113;42.012;24.870;2022-08-14T08:33:24;98184.69;;;27.22;49.61
46412;BME280;32113;42.012;24.870;2022-08-14T08:35:52;98185.94;;;27.18;49.14
46412;BME280;32113;42.012;24.870;2022-08-14T08:38:23;98193.75;;;26.99;49.76
46412;BME280;32113;42.012;24.870;2022-08-14T08:40:50;98200.84;;;26.79;50.46
46412;BME280;32113;42.012;24.870;2022-08-14T08:43:23;98207.34;;;26.75;50.61
46412;BME280;32113;42.012;24.870;2022-08-14T08:48:27;98205.69;;;26.44;51.01
46412;BME280;32113;42.012;24.870;2022-08-14T08:50:59;98208.06;;;26.37;51.49
46412;BME280;32113;42.012;24.870;2022-08-14T08:53:33;98205.13;;;26.31;52.26
46412;BME280;32113;42.012;24.870;2022-08-14T08:55:59;98218.94;;;26.23;52.42
46412;BME280;32113;42.012;24.870;2022-08-14T08:58:25;98208.59;;;26.21;52.71
46412;BME280;32113;42.012;24.870;2022-08-14T09:00:53;98204.81;;;25.94;53.71
46412;BME280;32113;42.012;24.870;2022-08-14T09:03:21;98207.53;;;25.83;54.28
46412;BME280;32113;42.012;24.870;2022-08-14T09:08:22;98209.28;;;25.63;55.89
46412;BME280;32113;42.012;24.870;2022-08-14T09:10:52;98216.88;;;25.56;56.53
46412;BME280;32113;42.012;24.870;2022-08-14T09:13:18;98211.66;;;25.44;56.80
46412;BME280;32113;42.012;24.870;2022-08-14T09:15:47;98233.31;;;25.37;57.37
46412;BME280;32113;42.012;24.870;2022-08-14T09:18:16;98228.75;;;25.29;58.20
46412;BME280;32113;42.012;24.870;2022-08-14T09:20:45;98227.50;;;25.33;58.50
46412;BME280;32113;42.012;24.870;2022-08-14T09:23:12;98225.16;;;25.30;58.93
46412;BME280;32113;42.012;24.870;2022-08-14T09:25:40;98220.28;;;25.25;59.44
46412;BME280;32113;42.012;24.870;2022-08-14T09:28:07;98212.13;;;25.18;60.22
46412;BME280;32113;42.012;24.870;2022-08-14T09:30:35;98212.25;;;25.17;60.87
46412;BME280;32113;42.012;24.870;2022-08-14T09:33:10;98212.81;;;25.21;61.26
46412;BME280;32113;42.012;24.870;2022-08-14T09:36:02;98217.78;;;25.24;61.12
46412;BME280;32113;42.012;24.870;2022-08-14T09:38:36;98210.91;;;25.32;62.76
46412;BME280;32113;42.012;24.870;2022-08-14T09:44:28;98211.53;;;25.46;63.72
46412;BME280;32113;42.012;24.870;2022-08-14T09:46:57;98217.03;;;25.43;64.28
46412;BME280;32113;42.012;24.870;2022-08-14T09:49:32;98215.13;;;25.45;64.49
46412;BME280;32113;42.012;24.870;2022-08-14T09:52:08;98216.91;;;25.44;64.97
46412;BME280;32113;42.012;24.870;2022-08-14T09:54:39;98214.03;;;25.48;64.84
46412;BME280;32113;42.012;24.870;2022-08-14T09:57:05;98214.28;;;25.44;65.07
46412;BME280;32113;42.012;24.870;2022-08-14T09:59:42;98217.97;;;25.32;66.08
46412;BME280;32113;42.012;24.870;2022-08-14T10:02:28;98209.09;;;25.23;65.74
46412;BME280;32113;42.012;24.870;2022-08-14T10:05:07;98202.44;;;25.19;66.35
46412;BME280;32113;42.012;24.870;2022-08-14T10:07:46;98192.84;;;25.08;66.59
46412;BME280;32113;42.012;24.870;2022-08-14T10:10:32;98196.22;;;24.99;67.08
46412;BME280;32113;42.012;24.870;2022-08-14T10:12:59;98194.19;;;24.81;65.40
46412;BME280;32113;42.012;24.870;2022-08-14T10:15:27;98195.72;;;24.62;66.33
46412;BME280;32113;42.012;24.870;2022-08-14T10:18:10;98177.38;;;24.62;66.46
46412;BME280;32113;42.012;24.870;2022-08-14T10:20:57;98169.03;;;24.57;67.43
46412;BME280;32113;42.012;24.870;2022-08-14T10:23:26;98153.00;;;24.72;67.97
46412;BME280;32113;42.012;24.870;2022-08-14T10:26:01;98169.41;;;24.74;68.44
46412;BME280;32113;42.012;24.870;2022-08-14T10:28:40;98174.78;;;24.72;68.35
46412;BME280;32113;42.012;24.870;2022-08-14T10:31:18;98186.91;;;24.85;67.54
46412;BME280;32113;42.012;24.870;2022-08-14T10:33:43;98186.16;;;24.94;68.61
46412;BME280;32113;42.012;24.870;2022-08-14T10:36:10;98179.44;;;25.01;69.73
46412;BME280;32113;42.012;24.870;2022-08-14T10:38:36;98184.28;;;25.06;70.63
46412;BME280;32113;42.012;24.870;2022-08-14T10:41:15;98177.81;;;25.10;72.47
46412;BME280;32113;42.012;24.870;2022-08-14T10:43:44;98175.31;;;25.09;73.19
46412;BME280;32113;42.012;24.870;2022-08-14T10:46:15;98171.59;;;25.11;72.25
46412;BME280;32113;42.012;24.870;2022-08-14T10:48:42;98174.69;;;24.95;72.83
46412;BME280;32113;42.012;24.870;2022-08-14T10:51:26;98167.22;;;24.90;73.91
46412;BME280;32113;42.012;24.870;2022-08-14T10:53:56;98157.94;;;24.86;73.96
46412;BME280;32113;42.012;24.870;2022-08-14T10:56:30;98153.00;;;24.93;75.01
46412;BME280;32113;42.012;24.870;2022-08-14T10:59:06;98141.13;;;24.99;75.61
46412;BME280;32113;42.012;24.870;2022-08-14T11:01:37;98136.44;;;24.92;76.22
46412;BME280;32113;42.012;24.870;2022-08-14T11:04:03;98137.38;;;24.91;75.26
46412;BME280;32113;42.012;24.870;2022-08-14T11:06:30;98135.75;;;25.00;75.37
46412;BME280;32113;42.012;24.870;2022-08-14T11:08:57;98136.56;;;25.22;75.25
46412;BME280;32113;42.012;24.870;2022-08-14T11:11:24;98139.81;;;25.45;75.37
46412;BME280;32113;42.012;24.870;2022-08-14T11:13:55;98130.66;;;25.81;72.32
46412;BME280;32113;42.012;24.870;2022-08-14T11:16:23;98134.84;;;26.13;68.67
46412;BME280;32113;42.012;24.870;2022-08-14T11:18:49;98138.34;;;26.33;67.54
46412;BME280;32113;42.012;24.870;2022-08-14T11:21:18;98137.34;;;26.54;65.55
46412;BME280;32113;42.012;24.870;2022-08-14T11:23:46;98138.13;;;26.74;65.68
46412;BME280;32113;42.012;24.870;2022-08-14T11:26:14;98138.00;;;26.76;61.96
46412;BME280;32113;42.012;24.870;2022-08-14T11:28:45;98146.47;;;26.60;60.50
46412;BME280;32113;42.012;24.870;2022-08-14T11:31:11;98143.97;;;26.58;62.22
46412;BME280;32113;42.012;24.870;2022-08-14T11:33:41;98139.56;;;26.49;61.07
46412;BME280;32113;42.012;24.870;2022-08-14T11:36:08;98131.41;;;26.42;62.30
46412;BME280;32113;42.012;24.870;2022-08-14T11:38:38;98142.47;;;26.36;62.87
46412;BME280;32113;42.012;24.870;2022-08-14T11:41:05;98141.78;;;26.34;62.70
46412;BME280;32113;42.012;24.870;2022-08-14T11:43:31;98146.88;;;26.26;62.65
46412;BME280;32113;42.012;24.870;2022-08-14T11:46:01;98151.28;;;26.15;63.58
46412;BME280;32113;42.012;24.870;2022-08-14T11:48:27;98150.63;;;26.13;64.73
46412;BME280;32113;42.012;24.870;2022-08-14T11:50:53;98156.13;;;26.10;63.71
46412;BME280;32113;42.012;24.870;2022-08-14T11:55:46;98156.50;;;25.85;63.53
46412;BME280;32113;42.012;24.870;2022-08-14T11:58:12;98146.16;;;25.84;63.62
46412;BME280;32113;42.012;24.870;2022-08-14T12:00:52;98149.75;;;25.83;63.74
46412;BME280;32113;42.012;24.870;2022-08-14T12:03:18;98151.97;;;25.88;63.93
46412;BME280;32113;42.012;24.870;2022-08-14T12:05:44;98145.88;;;25.87;61.40
46412;BME280;32113;42.012;24.870;2022-08-14T12:08:11;98155.03;;;25.93;59.14
46412;BME280;32113;42.012;24.870;2022-08-14T12:10:41;98157.78;;;25.91;61.04
46412;BME280;32113;42.012;24.870;2022-08-14T12:13:15;98160.28;;;25.93;61.32
46412;BME280;32113;42.012;24.870;2022-08-14T12:15:42;98161.38;;;25.90;58.19
46412;BME280;32113;42.012;24.870;2022-08-14T12:18:09;98166.91;;;25.87;57.07
46412;BME280;32113;42.012;24.870;2022-08-14T12:20:38;98167.72;;;25.78;59.28
46412;BME280;32113;42.012;24.870;2022-08-14T12:23:19;98169.53;;;25.77;59.30
46412;BME280;32113;42.012;24.870;2022-08-14T12:25:45;98177.41;;;25.77;61.60
46412;BME280;32113;42.012;24.870;2022-08-14T12:28:11;98183.03;;;25.73;61.02
46412;BME280;32113;42.012;24.870;2022-08-14T12:30:41;98175.72;;;25.66;60.91
46412;BME280;32113;42.012;24.870;2022-08-14T12:35:51;98216.53;;;25.49;63.03
46412;BME280;32113;42.012;24.870;2022-08-14T12:38:17;98214.38;;;25.33;66.70
46412;BME280;32113;42.012;24.870;2022-08-14T12:40:46;98213.06;;;25.17;69.56
46412;BME280;32113;42.012;24.870;2022-08-14T12:43:13;98231.09;;;25.11;70.61
46412;BME280;32113;42.012;24.870;2022-08-14T12:45:48;98221.84;;;25.06;70.39
46412;BME280;32113;42.012;24.870;2022-08-14T12:48:16;98229.41;;;25.00;69.60
46412;BME280;32113;42.012;24.870;2022-08-14T12:50:42;98228.25;;;24.92;69.68
46412;BME280;32113;42.012;24.870;2022-08-14T12:53:09;98218.56;;;24.72;72.68
46412;BME280;32113;42.012;24.870;2022-08-14T12:55:36;98208.69;;;24.64;73.33
46412;BME280;32113;42.012;24.870;2022-08-14T12:58:04;98213.56;;;24.69;72.54
46412;BME280;32113;42.012;24.870;2022-08-14T13:00:32;98211.91;;;24.67;71.50
46412;BME280;32113;42.012;24.870;2022-08-14T13:02:59;98221.97;;;24.51;71.74
46412;BME280;32113;42.012;24.870;2022-08-14T13:05:29;98228.13;;;24.28;72.73
46412;BME280;32113;42.012;24.870;2022-08-14T13:07:56;98225.56;;;23.94;74.07
46412;BME280;32113;42.012;24.870;2022-08-14T13:10:23;98238.09;;;23.68;77.09
46412;BME280;32113;42.012;24.870;2022-08-14T13:12:53;98233.78;;;23.67;78.13